createdAt,value
2023-05-24T00:00:34.759Z,100608.69
2023-05-24T00:03:05.001Z,100606.41
2023-05-24T00:05:31.925Z,100606.77
2023-05-24T00:07:59.484Z,100607.23
2023-05-24T00:10:26.491Z,100605.15
2023-05-24T00:12:53.228Z,100603.45
2023-05-24T00:15:19.984Z,100605.11
2023-05-24T00:17:46.929Z,100604.38
2023-05-24T00:20:14.608Z,100603.84
2023-05-24T00:22:42.146Z,100604.64
2023-05-24T00:25:09.602Z,100604.13
2023-05-24T00:27:40.285Z,100605.22
2023-05-24T00:30:07.642Z,100603.79
2023-05-24T00:32:34.543Z,100604.85
2023-05-24T00:35:01.371Z,100604.86
2023-05-24T00:37:29.642Z,100605.56
2023-05-24T00:39:56.610Z,100602.67
2023-05-24T00:42:23.391Z,100604.09
2023-05-24T00:44:50.345Z,100604.29
2023-05-24T00:47:17.208Z,100604.98
2023-05-24T00:49:47.083Z,100599.12
2023-05-24T00:52:14.271Z,100598.64
2023-05-24T00:54:41.337Z,100602.65
2023-05-24T00:57:08.558Z,100601.17
2023-05-24T00:59:36.171Z,100599.61
2023-05-24T01:02:04.885Z,100596.50
2023-05-24T01:04:32.925Z,100597.47
2023-05-24T01:07:27.025Z,100592.23
2023-05-24T01:10:18.170Z,100589.92
2023-05-24T01:13:02.858Z,100586.02
2023-05-24T01:15:52.332Z,100582.51
2023-05-24T01:18:30.608Z,100579.88
2023-05-24T01:21:12.212Z,100583.27
2023-05-24T01:23:58.920Z,100576.02
2023-05-24T01:26:48.987Z,100577.68
2023-05-24T01:29:16.297Z,100576.98
2023-05-24T01:31:43.369Z,100576.39
2023-05-24T01:34:12.236Z,100572.95
2023-05-24T01:36:39.859Z,100573.70
2023-05-24T01:39:07.065Z,100575.22
2023-05-24T01:41:40.267Z,100577.98
2023-05-24T01:44:29.541Z,100579.23
2023-05-24T01:47:11.891Z,100577.28
2023-05-24T01:49:44.296Z,100578.71
2023-05-24T01:52:19.645Z,100581.39
2023-05-24T01:54:51.714Z,100580.28
2023-05-24T01:57:22.943Z,100587.05
2023-05-24T01:59:51.586Z,100589.50
2023-05-24T02:02:19.103Z,100587.91
2023-05-24T02:04:47.129Z,100584.98
2023-05-24T02:07:13.906Z,100587.20
2023-05-24T02:09:40.992Z,100584.26
2023-05-24T02:12:08.542Z,100586.00
2023-05-24T02:14:38.079Z,100581.37
2023-05-24T02:17:06.211Z,100579.71
2023-05-24T02:19:34.806Z,100578.31
2023-05-24T02:22:01.691Z,100580.20
2023-05-24T02:24:30.205Z,100586.14
2023-05-24T02:26:56.959Z,100588.12
2023-05-24T02:29:24.170Z,100585.20
2023-05-24T02:31:56.369Z,100584.45
2023-05-24T02:34:24.475Z,100583.79
2023-05-24T02:36:51.512Z,100582.02
2023-05-24T02:39:18.373Z,100580.23
2023-05-24T02:41:45.131Z,100576.02
2023-05-24T02:44:12.161Z,100577.55
2023-05-24T02:46:38.974Z,100578.34
2023-05-24T02:49:06.008Z,100583.70
2023-05-24T02:51:32.840Z,100585.48
2023-05-24T02:53:59.717Z,100591.20
2023-05-24T02:56:29.400Z,100590.56
2023-05-24T02:58:57.323Z,100593.38
2023-05-24T03:01:24.351Z,100595.67
2023-05-24T03:03:52.134Z,100597.98
2023-05-24T03:06:20.115Z,100597.39
2023-05-24T03:08:47.309Z,100593.65
2023-05-24T03:11:14.163Z,100596.74
2023-05-24T03:13:41.386Z,100596.15
2023-05-24T03:16:08.559Z,100601.02
2023-05-24T03:18:36.170Z,100601.83
2023-05-24T03:21:02.993Z,100602.39
2023-05-24T03:23:29.741Z,100605.11
2023-05-24T03:25:56.535Z,100607.56
2023-05-24T03:28:24.517Z,100606.71
2023-05-24T03:30:51.257Z,100610.41
2023-05-24T03:33:18.736Z,100608.27
2023-05-24T03:35:45.678Z,100613.23
2023-05-24T03:38:12.397Z,100616.05
2023-05-24T03:40:40.570Z,100626.77
2023-05-24T03:43:13.344Z,100629.06
2023-05-24T03:45:44.721Z,100635.39
2023-05-24T03:48:11.614Z,100638.92
2023-05-24T03:50:38.710Z,100638.51
2023-05-24T03:53:05.619Z,100643.77
2023-05-24T03:55:32.427Z,100640.87
2023-05-24T03:57:59.303Z,100647.90
2023-05-24T04:00:26.145Z,100648.56
2023-05-24T04:02:53.357Z,100649.48
2023-05-24T04:05:27.264Z,100650.05
2023-05-24T04:07:54.370Z,100653.84
2023-05-24T04:10:21.164Z,100655.09
2023-05-24T04:12:48.450Z,100655.20
2023-05-24T04:15:15.403Z,100654.02
2023-05-24T04:17:44.099Z,100654.85
2023-05-24T04:20:12.092Z,100658.20
2023-05-24T04:22:39.530Z,100658.00
2023-05-24T04:25:07.658Z,100656.08
2023-05-24T04:27:36.400Z,100658.14
2023-05-24T04:30:04.122Z,100655.77
2023-05-24T04:32:30.891Z,100655.21
2023-05-24T04:34:57.853Z,100657.66
2023-05-24T04:37:25.269Z,100657.83
2023-05-24T04:39:52.092Z,100653.98
2023-05-24T04:42:18.770Z,100658.70
2023-05-24T04:44:45.519Z,100662.00
2023-05-24T04:47:13.038Z,100666.30
2023-05-24T04:49:39.966Z,100669.02
2023-05-24T04:52:07.660Z,100671.08
2023-05-24T04:54:34.515Z,100671.92
2023-05-24T04:57:01.387Z,100673.70
2023-05-24T04:59:28.176Z,100674.78
2023-05-24T05:01:54.967Z,100680.41
2023-05-24T05:04:21.806Z,100680.95
2023-05-24T05:06:48.860Z,100683.02
2023-05-24T05:09:16.088Z,100677.90
2023-05-24T05:11:43.487Z,100679.20
2023-05-24T05:14:10.711Z,100679.07
2023-05-24T05:16:38.786Z,100677.33
2023-05-24T05:19:06.076Z,100679.95
2023-05-24T05:21:33.684Z,100680.98
2023-05-24T05:24:01.397Z,100685.86
2023-05-24T05:26:29.329Z,100687.65
2023-05-24T05:28:57.677Z,100685.20
2023-05-24T05:31:24.898Z,100683.70
2023-05-24T05:33:51.923Z,100684.58
2023-05-24T05:36:19.259Z,100683.04
2023-05-24T05:38:46.814Z,100684.30
2023-05-24T05:41:13.602Z,100691.70
2023-05-24T05:43:40.516Z,100687.62
2023-05-24T05:46:07.435Z,100690.71
2023-05-24T05:48:34.232Z,100688.13
2023-05-24T05:51:00.980Z,100687.11
2023-05-24T05:53:27.836Z,100688.83
2023-05-24T05:55:54.736Z,100689.20
2023-05-24T05:58:21.561Z,100682.77
2023-05-24T06:00:48.357Z,100687.02
2023-05-24T06:03:15.402Z,100691.29
2023-05-24T06:05:42.332Z,100689.48
2023-05-24T06:08:09.053Z,100689.38
2023-05-24T06:10:35.961Z,100695.79
2023-05-24T06:13:04.722Z,100699.09
2023-05-24T06:15:33.401Z,100694.30
2023-05-24T06:18:02.267Z,100690.60
2023-05-24T06:20:29.549Z,100687.95
2023-05-24T06:22:57.411Z,100690.61
2023-05-24T06:25:24.696Z,100690.57
2023-05-24T06:27:54.016Z,100690.96
2023-05-24T06:30:21.051Z,100690.42
2023-05-24T06:32:48.024Z,100688.50
2023-05-24T06:35:14.816Z,100689.92
2023-05-24T06:37:41.547Z,100691.20
2023-05-24T06:40:11.644Z,100692.18
2023-05-24T06:42:39.983Z,100691.48
2023-05-24T06:45:08.595Z,100692.32
2023-05-24T06:47:36.191Z,100693.08
2023-05-24T06:50:06.717Z,100690.59
2023-05-24T06:52:33.446Z,100696.09
2023-05-24T06:55:00.178Z,100691.02
2023-05-24T06:57:27.172Z,100690.77
2023-05-24T06:59:53.942Z,100691.36
2023-05-24T07:02:26.678Z,100690.61
2023-05-24T07:04:53.735Z,100693.34
2023-05-24T07:07:21.397Z,100693.55
2023-05-24T07:09:48.237Z,100690.81
2023-05-24T07:12:15.129Z,100691.60
2023-05-24T07:14:42.078Z,100688.33
2023-05-24T07:17:08.914Z,100688.63
2023-05-24T07:19:36.225Z,100689.96
2023-05-24T07:22:03.028Z,100691.30
2023-05-24T07:24:29.814Z,100689.06
2023-05-24T07:26:59.250Z,100692.38
2023-05-24T07:29:26.217Z,100692.77
2023-05-24T07:31:56.263Z,100693.58
2023-05-24T07:34:23.996Z,100692.89
2023-05-24T07:36:50.730Z,100689.70
2023-05-24T07:39:17.525Z,100690.45
2023-05-24T07:41:44.960Z,100685.77
2023-05-24T07:44:12.355Z,100689.44
2023-05-24T07:46:39.611Z,100682.29
2023-05-24T07:49:07.095Z,100684.11
2023-05-24T07:51:34.156Z,100689.33
2023-05-24T07:54:01.271Z,100687.23
2023-05-24T07:56:28.039Z,100684.76
2023-05-24T07:58:59.496Z,100687.27
2023-05-24T08:01:26.336Z,100687.86
2023-05-24T08:03:53.384Z,100692.02
2023-05-24T08:06:20.595Z,100692.44
2023-05-24T08:08:47.863Z,100692.40
2023-05-24T08:11:14.597Z,100691.35
2023-05-24T08:13:41.731Z,100688.23
2023-05-24T08:16:08.633Z,100686.99
2023-05-24T08:18:35.473Z,100688.13
2023-05-24T08:21:02.716Z,100683.86
2023-05-24T08:23:30.175Z,100688.85
2023-05-24T08:26:00.181Z,100685.97
2023-05-24T08:28:27.491Z,100688.92
2023-05-24T08:30:54.466Z,100689.84
2023-05-24T08:33:23.099Z,100686.70
2023-05-24T08:35:52.655Z,100686.48
2023-05-24T08:38:19.396Z,100690.59
2023-05-24T08:40:48.228Z,100686.27
2023-05-24T08:43:15.624Z,100688.98
2023-05-24T08:45:43.446Z,100688.16
2023-05-24T08:48:10.745Z,100689.57
2023-05-24T08:50:37.591Z,100692.39
2023-05-24T08:53:07.064Z,100693.42
2023-05-24T08:55:35.432Z,100692.23
2023-05-24T08:58:02.409Z,100691.05
2023-05-24T09:00:29.241Z,100693.31
2023-05-24T09:02:59.037Z,100695.31
2023-05-24T09:05:26.570Z,100696.02
2023-05-24T09:07:56.153Z,100697.84
2023-05-24T09:10:24.468Z,100690.95
2023-05-24T09:12:56.224Z,100689.77
2023-05-24T09:15:23.281Z,100692.49
2023-05-24T09:17:50.201Z,100690.92
2023-05-24T09:20:17.930Z,100689.48
2023-05-24T09:22:48.432Z,100690.71
2023-05-24T09:25:15.573Z,100688.30
2023-05-24T09:27:46.153Z,100687.76
2023-05-24T09:30:15.712Z,100684.23
2023-05-24T09:32:55.003Z,100680.33
2023-05-24T09:35:21.966Z,100686.36
2023-05-24T09:37:48.717Z,100678.46
2023-05-24T09:40:20.765Z,100680.55
2023-05-24T09:42:49.091Z,100680.23
2023-05-24T09:45:16.741Z,100681.09
2023-05-24T09:47:47.343Z,100682.23
2023-05-24T09:50:17.706Z,100683.09
2023-05-24T09:52:45.114Z,100683.91
2023-05-24T09:55:17.132Z,100682.52
2023-05-24T09:57:45.352Z,100686.40
2023-05-24T10:00:16.622Z,100687.90
2023-05-24T10:02:52.962Z,100688.36
2023-05-24T10:05:21.310Z,100687.27
2023-05-24T10:07:48.741Z,100690.98
2023-05-24T10:10:15.848Z,100689.65
2023-05-24T10:12:46.981Z,100685.74
2023-05-24T10:15:14.139Z,100686.94
2023-05-24T10:17:41.245Z,100687.20
2023-05-24T10:20:09.135Z,100684.10
2023-05-24T10:22:40.747Z,100684.11
2023-05-24T10:25:10.934Z,100687.56
2023-05-24T10:27:39.164Z,100680.95
2023-05-24T10:30:20.235Z,100678.46
2023-05-24T10:32:49.272Z,100679.10
2023-05-24T10:35:18.365Z,100681.05
2023-05-24T10:37:47.661Z,100682.71
2023-05-24T10:40:22.901Z,100681.59
2023-05-24T10:43:09.195Z,100681.19
2023-05-24T10:45:40.719Z,100684.86
2023-05-24T10:48:13.835Z,100684.11
2023-05-24T10:50:42.087Z,100685.85
2023-05-24T10:53:16.236Z,100685.33
2023-05-24T10:55:56.266Z,100684.40
2023-05-24T10:58:48.587Z,100683.01
2023-05-24T11:01:34.027Z,100685.80
2023-05-24T11:04:12.850Z,100680.77
2023-05-24T11:06:46.326Z,100671.71
2023-05-24T11:09:13.040Z,100677.88
2023-05-24T11:11:39.750Z,100676.41
2023-05-24T11:14:06.425Z,100669.65
2023-05-24T11:16:39.528Z,100668.36
2023-05-24T11:19:14.962Z,100666.25
2023-05-24T11:21:44.284Z,100662.60
2023-05-24T11:24:11.953Z,100657.14
2023-05-24T11:26:39.076Z,100654.09
2023-05-24T11:29:06.342Z,100651.91
2023-05-24T11:31:33.266Z,100645.98
2023-05-24T11:34:18.204Z,100653.09
2023-05-24T11:36:46.508Z,100646.28
2023-05-24T11:39:14.686Z,100640.80
2023-05-24T11:41:41.977Z,100636.30
2023-05-24T11:44:10.337Z,100632.86
2023-05-24T11:46:39.520Z,100631.36
2023-05-24T11:49:07.201Z,100626.80
2023-05-24T11:51:37.248Z,100625.66
2023-05-24T11:54:04.092Z,100625.52
2023-05-24T11:56:33.594Z,100616.41
2023-05-24T11:59:21.857Z,100608.67
2023-05-24T12:01:48.746Z,100613.49
2023-05-24T12:04:15.696Z,100610.16
2023-05-24T12:06:44.715Z,100607.95
2023-05-24T12:09:16.951Z,100600.24
2023-05-24T12:11:48.276Z,100595.91
2023-05-24T12:14:16.867Z,100595.21
2023-05-24T12:16:45.542Z,100592.33
2023-05-24T12:19:32.346Z,100583.54
2023-05-24T12:22:24.651Z,100590.28
2023-05-24T12:24:52.709Z,100589.91
2023-05-24T12:27:19.457Z,100591.82
2023-05-24T12:29:46.191Z,100586.89
2023-05-24T12:32:14.296Z,100587.36
2023-05-24T12:34:43.542Z,100589.27
2023-05-24T12:37:14.798Z,100593.02
2023-05-24T12:39:43.630Z,100593.52
2023-05-24T12:42:14.748Z,100596.35
2023-05-24T12:44:42.045Z,100593.17
2023-05-24T12:47:09.841Z,100594.90
2023-05-24T12:49:36.930Z,100593.19
2023-05-24T12:52:04.129Z,100592.98
2023-05-24T12:54:31.032Z,100584.49
2023-05-24T12:57:03.325Z,100584.59
2023-05-24T12:59:30.417Z,100578.08
2023-05-24T13:01:57.896Z,100572.42
2023-05-24T13:04:30.681Z,100565.33
2023-05-24T13:06:59.025Z,100563.23
2023-05-24T13:09:26.340Z,100562.30
2023-05-24T13:11:54.408Z,100559.60
2023-05-24T13:14:21.570Z,100554.41
2023-05-24T13:16:48.963Z,100556.49
2023-05-24T13:19:17.818Z,100552.09
2023-05-24T13:21:46.379Z,100558.94
2023-05-24T13:24:16.713Z,100557.61
2023-05-24T13:26:45.486Z,100554.23
2023-05-24T13:31:43.006Z,100556.08
2023-05-24T13:34:11.719Z,100555.06
2023-05-24T13:36:39.168Z,100551.06
2023-05-24T13:41:37.908Z,100558.27
2023-05-24T13:44:05.015Z,100562.02
2023-05-24T13:46:32.441Z,100558.54
2023-05-24T13:49:00.027Z,100558.92
2023-05-24T13:51:27.367Z,100555.52
2023-05-24T13:53:55.706Z,100556.64
2023-05-24T13:56:24.358Z,100557.59
2023-05-24T13:58:52.554Z,100556.56
2023-05-24T14:01:20.115Z,100556.48
2023-05-24T14:03:47.032Z,100557.36
2023-05-24T14:06:14.545Z,100548.34
2023-05-24T14:08:41.511Z,100544.49
2023-05-24T14:11:08.399Z,100546.33
2023-05-24T14:16:06.492Z,100542.11
2023-05-24T14:18:34.272Z,100533.05
2023-05-24T14:21:01.156Z,100529.94
2023-05-24T14:23:30.516Z,100518.75
2023-05-24T14:25:58.173Z,100509.96
2023-05-24T14:28:25.214Z,100512.31
2023-05-24T14:30:52.098Z,100518.04
2023-05-24T14:33:18.928Z,100520.48
2023-05-24T14:35:46.648Z,100523.05
2023-05-24T14:38:13.718Z,100525.20
2023-05-24T14:40:41.097Z,100518.65
2023-05-24T14:43:11.001Z,100514.13
2023-05-24T14:45:42.192Z,100511.52
2023-05-24T14:48:11.861Z,100509.72
2023-05-24T14:50:40.907Z,100501.77
2023-05-24T14:53:12.237Z,100509.04
2023-05-24T14:55:42.194Z,100511.92
2023-05-24T14:58:11.578Z,100508.63
2023-05-24T15:00:39.192Z,100502.75
2023-05-24T15:03:07.985Z,100502.94
2023-05-24T15:05:36.692Z,100507.09
2023-05-24T15:08:05.977Z,100505.91
2023-05-24T15:10:33.553Z,100506.16
2023-05-24T15:13:01.457Z,100510.10
2023-05-24T15:15:28.905Z,100506.67
2023-05-24T15:17:56.096Z,100507.94
2023-05-24T15:22:52.439Z,100500.20
2023-05-24T15:25:19.269Z,100498.89
2023-05-24T15:27:46.275Z,100498.45
2023-05-24T15:30:13.266Z,100502.65
2023-05-24T15:32:41.072Z,100500.80
2023-05-24T15:35:08.406Z,100506.55
2023-05-24T15:37:35.115Z,100499.95
2023-05-24T15:40:01.817Z,100497.23
2023-05-24T15:42:28.663Z,100501.41
2023-05-24T15:44:55.582Z,100506.16
2023-05-24T15:47:22.858Z,100510.69
2023-05-24T15:49:50.104Z,100510.74
2023-05-24T15:52:17.342Z,100512.61
2023-05-24T15:54:44.193Z,100516.16
2023-05-24T15:57:10.975Z,100521.90
2023-05-24T15:59:38.765Z,100520.25
2023-05-24T16:02:09.670Z,100519.12
2023-05-24T16:04:36.547Z,100516.79
2023-05-24T16:07:03.372Z,100513.10
2023-05-24T16:09:30.204Z,100512.74
2023-05-24T16:11:56.999Z,100514.15
2023-05-24T16:14:23.989Z,100517.00
2023-05-24T16:16:50.756Z,100529.15
2023-05-24T16:19:18.527Z,100533.56
2023-05-24T16:21:45.533Z,100533.01
2023-05-24T16:24:12.295Z,100529.95
2023-05-24T16:26:39.140Z,100524.63
2023-05-24T16:29:07.220Z,100526.47
2023-05-24T16:31:34.151Z,100527.91
2023-05-24T16:34:02.858Z,100527.89
2023-05-24T16:36:29.595Z,100532.36
2023-05-24T16:38:56.856Z,100534.75
2023-05-24T16:41:23.558Z,100542.75
2023-05-24T16:43:50.489Z,100555.73
2023-05-24T16:46:17.285Z,100568.05
2023-05-24T16:48:44.096Z,100577.14
2023-05-24T16:51:10.959Z,100580.83
2023-05-24T16:53:38.294Z,100587.67
2023-05-24T16:56:05.255Z,100594.31
2023-05-24T16:58:32.015Z,100600.20
2023-05-24T17:00:59.325Z,100604.96
2023-05-24T17:03:29.175Z,100611.52
2023-05-24T17:06:03.926Z,100615.45
2023-05-24T17:08:36.000Z,100616.20
2023-05-24T17:11:04.363Z,100617.48
2023-05-24T17:13:32.262Z,100612.83
2023-05-24T17:16:00.966Z,100610.98
2023-05-24T17:18:28.538Z,100609.12
2023-05-24T17:20:56.951Z,100610.44
2023-05-24T17:23:26.002Z,100606.34
2023-05-24T17:25:55.783Z,100607.45
2023-05-24T17:28:29.183Z,100605.78
2023-05-24T17:31:00.974Z,100607.81
2023-05-24T17:33:30.089Z,100608.42
2023-05-24T17:35:57.698Z,100614.58
2023-05-24T17:38:25.866Z,100618.05
2023-05-24T17:40:59.319Z,100624.41
2023-05-24T17:43:32.780Z,100627.93
2023-05-24T17:46:10.318Z,100637.06
2023-05-24T17:48:42.935Z,100643.96
2023-05-24T17:51:10.755Z,100646.02
2023-05-24T17:53:38.423Z,100655.02
2023-05-24T17:56:06.222Z,100658.45
2023-05-24T17:58:37.827Z,100663.11
2023-05-24T18:01:11.802Z,100667.23
2023-05-24T18:03:40.893Z,100672.18
2023-05-24T18:06:08.632Z,100674.65
2023-05-24T18:08:38.328Z,100677.04
2023-05-24T18:11:08.866Z,100678.17
2023-05-24T18:13:37.458Z,100681.41
2023-05-24T18:16:04.585Z,100686.95
2023-05-24T18:18:33.244Z,100696.84
2023-05-24T18:21:00.095Z,100700.30
2023-05-24T18:23:28.220Z,100707.55
2023-05-24T18:26:01.246Z,100708.38
2023-05-24T18:28:30.098Z,100713.10
2023-05-24T18:30:56.902Z,100711.21
2023-05-24T18:33:24.763Z,100714.20
2023-05-24T18:35:53.744Z,100714.64
2023-05-24T18:38:20.527Z,100718.70
2023-05-24T18:40:47.300Z,100716.45
2023-05-24T18:43:14.187Z,100719.21
2023-05-24T18:45:42.021Z,100718.01
2023-05-24T18:48:09.093Z,100717.41
2023-05-24T18:50:38.492Z,100717.50
2023-05-24T18:53:05.248Z,100717.33
2023-05-24T18:55:33.441Z,100713.42
2023-05-24T18:58:00.585Z,100713.11
2023-05-24T19:00:27.449Z,100712.89
2023-05-24T19:02:55.787Z,100714.94
2023-05-24T19:05:25.519Z,100719.41
2023-05-24T19:07:53.616Z,100723.41
2023-05-24T19:10:22.066Z,100729.85
2023-05-24T19:12:50.361Z,100729.19
2023-05-24T19:15:18.612Z,100728.00
2023-05-24T19:17:45.433Z,100727.63
2023-05-24T19:20:12.378Z,100726.85
2023-05-24T19:22:40.474Z,100724.33
2023-05-24T19:25:08.110Z,100725.44
2023-05-24T19:27:39.835Z,100726.42
2023-05-24T19:30:15.354Z,100730.91
2023-05-24T19:32:45.247Z,100732.08
2023-05-24T19:35:12.852Z,100738.34
2023-05-24T19:37:41.415Z,100741.40
2023-05-24T19:40:11.622Z,100746.22
2023-05-24T19:42:40.762Z,100748.81
2023-05-24T19:45:09.451Z,100752.48
2023-05-24T19:47:36.366Z,100754.90
2023-05-24T19:50:04.631Z,100760.66
2023-05-24T19:52:32.430Z,100760.60
2023-05-24T19:54:59.237Z,100764.95
2023-05-24T19:57:28.033Z,100762.17
2023-05-24T19:59:56.347Z,100766.38
2023-05-24T20:02:23.164Z,100770.13
2023-05-24T20:04:51.347Z,100766.95
2023-05-24T20:07:19.513Z,100774.29
2023-05-24T20:09:46.370Z,100777.46
2023-05-24T20:12:14.682Z,100777.38
2023-05-24T20:14:42.056Z,100781.44
2023-05-24T20:17:08.903Z,100778.41
2023-05-24T20:19:37.007Z,100779.84
2023-05-24T20:22:05.621Z,100775.48
2023-05-24T20:24:33.026Z,100776.98
2023-05-24T20:27:07.204Z,100776.60
2023-05-24T20:29:37.042Z,100777.01
2023-05-24T20:32:06.076Z,100775.36
2023-05-24T20:34:33.281Z,100779.88
2023-05-24T20:37:03.110Z,100783.24
2023-05-24T20:39:31.851Z,100778.77
2023-05-24T20:41:59.341Z,100774.70
2023-05-24T20:44:27.193Z,100772.89
2023-05-24T20:46:57.972Z,100770.60
2023-05-24T20:49:25.958Z,100768.27
2023-05-24T20:51:53.263Z,100766.31
2023-05-24T20:54:20.036Z,100766.98
2023-05-24T20:56:47.306Z,100764.45
2023-05-24T20:59:15.527Z,100761.17
2023-05-24T21:01:42.517Z,100762.89
2023-05-24T21:04:09.440Z,100767.21
2023-05-24T21:06:36.783Z,100766.48
2023-05-24T21:09:07.318Z,100766.36
2023-05-24T21:11:34.655Z,100765.94
2023-05-24T21:14:04.492Z,100764.80
2023-05-24T21:16:34.015Z,100768.38
2023-05-24T21:19:02.582Z,100764.05
2023-05-24T21:21:29.331Z,100768.54
2023-05-24T21:23:58.042Z,100762.64
2023-05-24T21:26:25.416Z,100761.64
2023-05-24T21:28:52.880Z,100764.48
2023-05-24T21:31:20.815Z,100768.32
2023-05-24T21:33:47.987Z,100764.48
2023-05-24T21:36:16.010Z,100762.33
2023-05-24T21:38:42.848Z,100766.67
2023-05-24T21:41:09.683Z,100761.36
2023-05-24T21:43:42.843Z,100763.15
2023-05-24T21:46:09.754Z,100760.27
2023-05-24T21:48:36.795Z,100761.11
2023-05-24T21:51:03.715Z,100759.98
2023-05-24T21:53:30.487Z,100762.73
2023-05-24T21:55:58.555Z,100760.66
2023-05-24T21:58:25.471Z,100763.02
2023-05-24T22:00:52.378Z,100767.13
2023-05-24T22:03:19.189Z,100762.45
2023-05-24T22:05:47.193Z,100770.46
2023-05-24T22:08:14.042Z,100772.70
2023-05-24T22:10:40.787Z,100773.46
2023-05-24T22:13:07.415Z,100777.70
2023-05-24T22:15:34.113Z,100777.21
2023-05-24T22:18:03.697Z,100781.09
2023-05-24T22:20:31.990Z,100779.27
2023-05-24T22:22:58.987Z,100779.43
2023-05-24T22:25:25.796Z,100781.23
2023-05-24T22:27:55.879Z,100783.29
2023-05-24T22:30:24.054Z,100785.90
2023-05-24T22:32:51.264Z,100787.04
2023-05-24T22:35:18.018Z,100782.38
2023-05-24T22:37:44.911Z,100780.31
2023-05-24T22:40:12.524Z,100780.96
2023-05-24T22:42:39.249Z,100780.27
2023-05-24T22:45:06.795Z,100774.35
2023-05-24T22:47:33.664Z,100771.40
2023-05-24T22:50:02.199Z,100773.36
2023-05-24T22:52:30.449Z,100771.48
2023-05-24T22:54:57.136Z,100774.07
2023-05-24T22:57:23.824Z,100774.05
2023-05-24T22:59:50.606Z,100769.55
2023-05-24T23:02:17.452Z,100762.08
2023-05-24T23:04:47.521Z,100764.29
2023-05-24T23:07:17.586Z,100760.46
2023-05-24T23:09:44.623Z,100757.38
2023-05-24T23:12:12.141Z,100759.48
2023-05-24T23:14:41.636Z,100761.40
2023-05-24T23:17:15.597Z,100761.79
2023-05-24T23:19:43.487Z,100768.44
2023-05-24T23:22:14.015Z,100780.41
2023-05-24T23:24:45.029Z,100789.61
2023-05-24T23:27:11.888Z,100793.66
2023-05-24T23:29:41.793Z,100801.23
2023-05-24T23:32:09.608Z,100807.70
2023-05-24T23:34:37.410Z,100814.33
2023-05-24T23:37:05.582Z,100819.85
2023-05-24T23:39:32.319Z,100821.38
2023-05-24T23:41:58.995Z,100821.41
2023-05-24T23:44:26.021Z,100822.58
2023-05-24T23:46:53.705Z,100822.79
2023-05-24T23:49:20.645Z,100825.76
2023-05-24T23:51:47.574Z,100825.28
2023-05-24T23:54:19.365Z,100832.27
2023-05-24T23:56:46.388Z,100829.64
2023-05-24T23:59:13.303Z,100831.13
